Terminal Aerodrome Forecast
Issued by NWS

Home | Current Version | Previous Version | Graphics & Text | Print | Product List | Glossary On
Versions: 1 2 3 4 5 6 7 8 9 10 11 12 13 14 15 16 17
000
FTUS43 KIWX 161120
TAFSBN
TAF
KSBN 161120Z 1612/1712 11004KT P6SM VCSH OVC050
      TEMPO 1612/1616 -FZRAPL
     FM162100 12007KT 1SM -RA BR OVC003
     FM170000 11008KT 1/2SM RA FG OVC003 WS020/19040KT=

USA.gov is the U.S. government's official web portal to all federal, state and local government web resources and services.